createdAt,value
2018-03-19T00:00:12.663Z,33.77
2018-03-19T00:02:40.141Z,31.43
2018-03-19T00:05:07.597Z,32.90
2018-03-19T00:07:35.067Z,33.23
2018-03-19T00:10:02.529Z,34.33
2018-03-19T00:12:29.992Z,32.47
2018-03-19T00:14:57.449Z,32.30
2018-03-19T00:17:24.929Z,31.60
2018-03-19T00:19:53.153Z,32.27
2018-03-19T00:22:20.616Z,35.30
2018-03-19T00:24:48.073Z,31.03
2018-03-19T00:27:15.549Z,29.60
2018-03-19T00:29:43.015Z,31.83
2018-03-19T00:32:10.483Z,31.80
2018-03-19T00:34:38.717Z,33.50
2018-03-19T00:37:06.184Z,31.73
2018-03-19T00:39:33.641Z,30.83
2018-03-19T00:42:01.105Z,30.53
2018-03-19T00:44:28.568Z,29.23
2018-03-19T00:46:56.047Z,30.97
2018-03-19T00:49:24.264Z,31.80
2018-03-19T00:51:51.740Z,32.30
2018-03-19T00:54:19.203Z,32.13
2018-03-19T00:56:46.684Z,34.43
2018-03-19T00:59:14.152Z,31.40
2018-03-19T01:01:42.383Z,35.23
2018-03-19T01:04:09.859Z,33.67
2018-03-19T01:06:37.318Z,33.33
2018-03-19T01:09:04.792Z,32.13
2018-03-19T01:11:32.248Z,33.53
2018-03-19T01:14:00.478Z,30.97
2018-03-19T01:16:27.928Z,30.33
2018-03-19T01:18:55.400Z,30.53
2018-03-19T01:21:22.851Z,29.50
2018-03-19T01:23:51.092Z,30.30
2018-03-19T01:26:18.549Z,28.67
2018-03-19T01:28:46.776Z,29.83
2018-03-19T01:31:14.237Z,27.33
2018-03-19T01:33:41.706Z,31.20
2018-03-19T01:36:09.165Z,28.50
2018-03-19T01:38:36.633Z,32.00
2018-03-19T01:41:04.862Z,31.77
2018-03-19T01:43:32.336Z,28.63
2018-03-19T01:45:59.788Z,30.50
2018-03-19T01:48:27.258Z,29.57
2018-03-19T01:50:54.726Z,31.83
2018-03-19T01:53:22.196Z,29.40
2018-03-19T01:55:49.659Z,30.77
2018-03-19T01:58:17.896Z,30.87
2018-03-19T02:00:45.365Z,30.50
2018-03-19T02:03:12.830Z,30.53
2018-03-19T02:05:40.292Z,27.60
2018-03-19T02:08:07.759Z,29.50
2018-03-19T02:10:35.221Z,29.33
2018-03-19T02:13:03.456Z,30.37
2018-03-19T02:15:30.920Z,30.77
2018-03-19T02:17:58.375Z,28.13
2018-03-19T02:20:25.848Z,29.73
2018-03-19T02:22:53.304Z,29.30
2018-03-19T02:25:20.776Z,31.50
2018-03-19T02:27:48.231Z,31.00
2018-03-19T02:30:15.700Z,30.83
2018-03-19T02:32:43.939Z,30.37
2018-03-19T02:35:11.405Z,30.57
2018-03-19T02:37:38.868Z,31.90
2018-03-19T02:40:07.260Z,29.93
2018-03-19T02:42:34.725Z,30.57
2018-03-19T02:45:02.957Z,32.50
2018-03-19T02:47:30.411Z,30.80
2018-03-19T02:49:57.895Z,30.63
2018-03-19T02:52:25.352Z,30.90
2018-03-19T02:54:52.818Z,31.73
2018-03-19T02:57:20.276Z,31.20
2018-03-19T02:59:47.753Z,31.50
2018-03-19T03:02:15.971Z,30.03
2018-03-19T03:04:43.440Z,30.37
2018-03-19T03:07:10.899Z,30.10
2018-03-19T03:09:38.365Z,31.63
2018-03-19T03:12:05.831Z,30.00
2018-03-19T03:14:33.288Z,31.00
2018-03-19T03:17:00.754Z,28.07
2018-03-19T03:19:28.216Z,29.83
2018-03-19T03:21:55.689Z,27.30
2018-03-19T03:24:23.909Z,30.50
2018-03-19T03:26:51.380Z,28.53
2018-03-19T03:29:18.837Z,28.30
2018-03-19T03:31:46.356Z,30.43
2018-03-19T03:34:13.784Z,28.37
2018-03-19T03:36:41.292Z,28.20
2018-03-19T03:39:08.753Z,27.23
2018-03-19T03:41:36.220Z,27.07
2018-03-19T03:44:03.679Z,27.47
2018-03-19T03:46:31.161Z,25.47
2018-03-19T03:48:58.621Z,26.50
2018-03-19T03:51:26.092Z,28.37
2018-03-19T03:53:54.316Z,25.97
2018-03-19T03:56:21.783Z,30.53
2018-03-19T03:58:49.236Z,27.80
2018-03-19T04:01:16.700Z,28.37
2018-03-19T04:03:44.160Z,26.73
2018-03-19T04:06:11.629Z,29.57
2018-03-19T04:08:39.086Z,26.97
2018-03-19T04:11:06.548Z,27.00
2018-03-19T04:13:34.001Z,27.33
2018-03-19T04:16:01.472Z,30.10
2018-03-19T04:18:28.941Z,27.47
2018-03-19T04:20:57.197Z,27.80
2018-03-19T04:23:24.665Z,31.60
2018-03-19T04:25:52.124Z,30.97
2018-03-19T04:28:19.608Z,28.27
2018-03-19T04:30:47.824Z,30.97
2018-03-19T04:33:15.293Z,33.87
2018-03-19T04:35:42.750Z,30.90
2018-03-19T04:38:10.237Z,32.50
2018-03-19T04:40:38.465Z,29.73
2018-03-19T04:43:06.499Z,32.97
2018-03-19T04:45:33.964Z,32.57
2018-03-19T04:48:01.440Z,32.13
2018-03-19T04:50:28.898Z,29.87
2018-03-19T04:52:56.356Z,28.30
2018-03-19T04:55:23.812Z,27.70
2018-03-19T04:57:51.290Z,30.47
2018-03-19T05:00:18.755Z,28.10
2018-03-19T05:02:46.232Z,27.03
2018-03-19T05:05:13.691Z,28.30
2018-03-19T05:07:41.153Z,27.47
2018-03-19T05:10:08.644Z,30.83
2018-03-19T05:12:36.107Z,29.10
2018-03-19T05:15:03.569Z,26.90
2018-03-19T05:17:31.033Z,28.70
2018-03-19T05:19:58.500Z,30.00
2018-03-19T05:22:25.974Z,29.67
2018-03-19T05:24:53.437Z,28.87
2018-03-19T05:27:20.896Z,29.87
2018-03-19T05:29:48.360Z,28.00
2018-03-19T05:32:15.829Z,27.03
2018-03-19T05:34:43.291Z,28.17
2018-03-19T05:37:11.515Z,28.73
2018-03-19T05:39:38.980Z,28.13
2018-03-19T05:42:06.439Z,26.70
2018-03-19T05:44:33.932Z,26.90
2018-03-19T05:47:01.389Z,28.67
2018-03-19T05:49:28.860Z,27.33
2018-03-19T05:51:57.097Z,26.87
2018-03-19T05:54:24.572Z,26.43
2018-03-19T05:56:52.034Z,26.27
2018-03-19T05:59:19.504Z,27.43
2018-03-19T06:01:47.730Z,26.20
2018-03-19T06:04:15.197Z,24.70
2018-03-19T06:06:42.719Z,26.63
2018-03-19T06:09:10.946Z,28.27
2018-03-19T06:11:38.404Z,26.97
2018-03-19T06:14:05.888Z,26.90
2018-03-19T06:16:34.112Z,27.23
2018-03-19T06:19:01.595Z,28.80
2018-03-19T06:21:29.063Z,26.03
2018-03-19T06:23:56.527Z,25.70
2018-03-19T06:26:24.761Z,28.30
2018-03-19T06:28:52.224Z,27.97
2018-03-19T06:31:19.696Z,27.97
2018-03-19T06:33:47.164Z,28.60
2018-03-19T06:36:14.627Z,28.10
2018-03-19T06:38:42.088Z,29.43
2018-03-19T06:41:09.559Z,28.40
2018-03-19T06:43:37.773Z,24.70
2018-03-19T06:46:05.241Z,26.00
2018-03-19T06:48:32.708Z,27.30
2018-03-19T06:51:00.193Z,28.50
2018-03-19T06:53:27.644Z,28.13
2018-03-19T06:55:55.116Z,27.60
2018-03-19T06:58:23.332Z,27.27
2018-03-19T07:00:50.863Z,27.43
2018-03-19T07:03:18.281Z,27.43
2018-03-19T07:05:45.753Z,28.07
2018-03-19T07:08:13.209Z,27.77
2018-03-19T07:10:40.693Z,26.80
2018-03-19T07:13:08.910Z,27.50
2018-03-19T07:15:36.384Z,27.80
2018-03-19T07:18:03.842Z,27.47
2018-03-19T07:20:31.352Z,29.03
2018-03-19T07:22:58.823Z,27.10
2018-03-19T07:25:26.291Z,26.80
2018-03-19T07:27:53.749Z,27.17
2018-03-19T07:30:21.218Z,27.50
2018-03-19T07:32:48.693Z,27.07
2018-03-19T07:35:16.151Z,30.63
2018-03-19T07:37:43.944Z,30.73
2018-03-19T07:40:12.179Z,30.90
2018-03-19T07:42:39.654Z,30.77
2018-03-19T07:45:07.105Z,27.40
2018-03-19T07:47:34.588Z,29.43
2018-03-19T07:50:02.813Z,26.73
2018-03-19T07:52:30.288Z,27.47
2018-03-19T07:54:57.746Z,29.40
2018-03-19T07:57:25.261Z,25.90
2018-03-19T07:59:52.723Z,28.03
2018-03-19T08:02:20.199Z,27.00
2018-03-19T08:04:47.663Z,27.67
2018-03-19T08:07:15.136Z,24.30
2018-03-19T08:09:42.599Z,28.40
2018-03-19T08:12:10.113Z,28.80
2018-03-19T08:14:37.541Z,24.70
2018-03-19T08:17:05.792Z,26.13
2018-03-19T08:19:33.256Z,25.40
2018-03-19T08:22:00.725Z,28.03
2018-03-19T08:24:28.952Z,28.50
2018-03-19T08:27:06.159Z,26.47
2018-03-19T08:29:33.633Z,26.33
2018-03-19T08:32:01.097Z,26.47
2018-03-19T08:34:28.571Z,26.40
2018-03-19T08:36:56.801Z,25.03
2018-03-19T08:39:24.267Z,26.47
2018-03-19T08:41:51.799Z,26.67
2018-03-19T08:44:19.213Z,25.60
2018-03-19T08:46:47.448Z,25.07
2018-03-19T08:49:14.912Z,26.90
2018-03-19T08:51:42.373Z,25.10
2018-03-19T08:54:09.847Z,29.37
2018-03-19T08:56:37.308Z,27.80
2018-03-19T08:59:04.869Z,28.13
2018-03-19T09:01:32.779Z,26.03
2018-03-19T09:04:00.260Z,26.67
2018-03-19T09:06:27.725Z,24.97
2018-03-19T09:08:55.204Z,26.43
2018-03-19T09:11:22.681Z,27.70
2018-03-19T09:13:50.917Z,27.70
2018-03-19T09:16:19.144Z,25.17
2018-03-19T09:18:46.621Z,26.27
2018-03-19T09:21:14.077Z,26.67
2018-03-19T09:23:41.550Z,25.90
2018-03-19T09:26:09.005Z,27.33
2018-03-19T09:28:36.480Z,26.80
2018-03-19T09:31:03.991Z,25.37
2018-03-19T09:33:31.408Z,24.77
2018-03-19T09:35:58.881Z,25.07
2018-03-19T09:38:26.333Z,25.80
2018-03-19T09:40:53.807Z,27.20
2018-03-19T09:43:22.089Z,24.40
2018-03-19T09:45:49.515Z,23.87
2018-03-19T09:48:17.009Z,27.33
2018-03-19T09:50:44.457Z,25.80
2018-03-19T09:53:12.680Z,28.13
2018-03-19T09:55:40.151Z,26.80
2018-03-19T09:58:07.612Z,26.10
2018-03-19T10:00:35.076Z,25.97
2018-03-19T10:03:02.595Z,26.17
2018-03-19T10:05:30.069Z,27.23
2018-03-19T10:07:57.533Z,26.00
2018-03-19T10:10:25.000Z,27.27
2018-03-19T10:12:53.245Z,26.57
2018-03-19T10:15:20.717Z,25.20
2018-03-19T10:17:48.173Z,25.97
2018-03-19T10:20:15.641Z,26.57
2018-03-19T10:22:43.100Z,25.63
2018-03-19T10:25:10.560Z,27.47
2018-03-19T10:27:38.026Z,26.90
2018-03-19T10:30:05.495Z,25.37
2018-03-19T10:32:32.957Z,25.20
2018-03-19T10:35:00.424Z,26.83
2018-03-19T10:37:27.896Z,25.43
2018-03-19T10:39:56.179Z,26.90
2018-03-19T10:42:23.605Z,27.00
2018-03-19T10:44:51.062Z,24.60
2018-03-19T10:47:18.536Z,27.13
2018-03-19T10:49:46.770Z,24.97
2018-03-19T10:52:14.240Z,25.50
2018-03-19T10:54:41.704Z,25.70
2018-03-19T10:57:09.172Z,24.93
2018-03-19T10:59:36.627Z,23.80
2018-03-19T11:02:09.730Z,25.07
2018-03-19T11:04:37.953Z,26.50
2018-03-19T11:07:11.157Z,26.50
2018-03-19T11:09:47.121Z,21.80
2018-03-19T11:12:14.634Z,23.70
2018-03-19T11:14:42.052Z,25.00
2018-03-19T11:17:09.524Z,27.40
2018-03-19T11:19:37.756Z,26.03
2018-03-19T11:22:05.221Z,25.93
2018-03-19T11:24:32.675Z,26.80
2018-03-19T11:27:00.175Z,25.47
2018-03-19T11:29:28.398Z,24.50
2018-03-19T11:31:55.868Z,25.10
2018-03-19T11:34:23.328Z,22.57
2018-03-19T11:36:50.805Z,24.90
2018-03-19T11:39:18.267Z,24.60
2018-03-19T11:41:45.744Z,24.77
2018-03-19T11:44:13.966Z,24.27
2018-03-19T11:46:42.224Z,24.67
2018-03-19T11:49:09.681Z,26.00
2018-03-19T11:51:37.169Z,24.10
2018-03-19T11:54:05.350Z,23.87
2018-03-19T11:56:32.829Z,25.37
2018-03-19T11:59:00.292Z,26.70
2018-03-19T12:01:27.753Z,25.63
2018-03-19T12:03:55.989Z,25.40
2018-03-19T12:06:24.216Z,24.57
2018-03-19T12:08:52.473Z,25.47
2018-03-19T12:11:19.937Z,26.00
2018-03-19T12:13:47.414Z,24.87
2018-03-19T12:16:15.659Z,24.53
2018-03-19T12:18:43.123Z,25.97
2018-03-19T12:21:10.590Z,23.10
2018-03-19T12:23:38.067Z,24.60
2018-03-19T12:26:05.528Z,26.93
2018-03-19T12:28:33.010Z,23.30
2018-03-19T12:31:00.469Z,23.77
2018-03-19T12:33:27.948Z,23.97
2018-03-19T12:35:55.420Z,23.67
2018-03-19T12:38:22.899Z,25.30
2018-03-19T12:40:51.125Z,22.73
2018-03-19T12:43:18.600Z,24.00
2018-03-19T12:45:46.168Z,23.70
2018-03-19T12:48:13.737Z,25.67
2018-03-19T12:50:41.197Z,25.47
2018-03-19T12:53:08.659Z,25.20
2018-03-19T12:55:36.909Z,25.27
2018-03-19T12:58:04.363Z,23.90
2018-03-19T13:00:31.968Z,25.03
2018-03-19T13:03:00.200Z,24.40
2018-03-19T13:05:27.668Z,24.60
2018-03-19T13:07:55.135Z,24.23
2018-03-19T13:10:22.599Z,23.57
2018-03-19T13:12:50.062Z,24.60
2018-03-19T13:15:18.296Z,23.80
2018-03-19T13:17:46.608Z,24.23
2018-03-19T13:20:14.067Z,23.30
2018-03-19T13:22:41.533Z,26.70
2018-03-19T13:25:09.772Z,25.13
2018-03-19T13:27:37.233Z,24.70
2018-03-19T13:30:04.712Z,24.80
2018-03-19T13:32:32.173Z,24.47
2018-03-19T13:34:59.655Z,25.33
2018-03-19T13:37:27.110Z,23.60
2018-03-19T13:39:54.571Z,22.63
2018-03-19T13:42:22.042Z,25.40
2018-03-19T13:44:49.508Z,23.67
2018-03-19T13:47:16.968Z,24.20
2018-03-19T13:49:44.436Z,25.47
2018-03-19T13:52:11.897Z,23.43
2018-03-19T13:54:39.360Z,23.93
2018-03-19T13:57:06.824Z,23.50
2018-03-19T13:59:34.280Z,24.83
2018-03-19T14:02:01.753Z,25.40
2018-03-19T14:04:29.212Z,25.00
2018-03-19T14:06:56.674Z,23.10
2018-03-19T14:09:24.135Z,23.60
2018-03-19T14:11:52.380Z,23.60
2018-03-19T14:14:19.848Z,22.67
2018-03-19T14:16:47.315Z,23.47
2018-03-19T14:19:14.792Z,22.07
2018-03-19T14:21:43.031Z,23.40
2018-03-19T14:24:11.269Z,24.40
2018-03-19T14:26:38.743Z,23.80
2018-03-19T14:29:07.080Z,24.80
2018-03-19T14:31:35.317Z,23.03
2018-03-19T14:34:02.780Z,23.90
2018-03-19T14:36:30.268Z,22.77
2018-03-19T14:38:58.499Z,24.53
2018-03-19T14:41:25.965Z,22.27
2018-03-19T14:43:53.433Z,24.43
2018-03-19T14:46:20.929Z,24.00
2018-03-19T14:48:48.375Z,23.77
2018-03-19T14:51:16.640Z,23.40
2018-03-19T14:53:44.112Z,23.90
2018-03-19T14:56:12.643Z,22.77
2018-03-19T14:58:40.112Z,24.77
2018-03-19T15:01:07.624Z,23.20
2018-03-19T15:03:35.860Z,25.20
2018-03-19T15:06:03.325Z,23.00
2018-03-19T15:08:30.805Z,23.43
2018-03-19T15:10:59.032Z,23.97
2018-03-19T15:13:26.516Z,23.07
2018-03-19T15:15:53.987Z,24.90
2018-03-19T15:18:22.369Z,24.97
2018-03-19T15:20:50.600Z,22.43
2018-03-19T15:23:18.100Z,24.60
2018-03-19T15:25:46.330Z,23.87
2018-03-19T15:28:13.811Z,24.57
2018-03-19T15:30:41.268Z,24.00
2018-03-19T15:33:08.783Z,24.73
2018-03-19T15:35:36.256Z,24.67
2018-03-19T15:38:03.728Z,25.70
2018-03-19T15:40:31.305Z,23.33
2018-03-19T15:42:59.569Z,23.97
2018-03-19T15:45:27.040Z,25.50
2018-03-19T15:47:54.516Z,25.00
2018-03-19T15:50:22.739Z,23.47
2018-03-19T15:52:50.225Z,22.60
2018-03-19T15:55:17.726Z,25.30
2018-03-19T15:57:45.967Z,25.00
2018-03-19T16:00:13.428Z,25.57
2018-03-19T16:02:40.936Z,25.70
2018-03-19T16:05:08.408Z,25.33
2018-03-19T16:07:35.867Z,25.20
2018-03-19T16:10:03.340Z,27.20
2018-03-19T16:12:30.810Z,27.77
2018-03-19T16:14:58.281Z,26.50
2018-03-19T16:17:25.735Z,27.17
2018-03-19T16:19:53.202Z,28.13
2018-03-19T16:22:21.426Z,26.63
2018-03-19T16:24:48.920Z,25.53
2018-03-19T16:27:16.409Z,26.97
2018-03-19T16:29:43.888Z,27.63
2018-03-19T16:32:11.356Z,28.83
2018-03-19T16:34:38.828Z,26.00
2018-03-19T16:37:07.060Z,24.80
2018-03-19T16:39:35.292Z,23.83
2018-03-19T16:42:02.758Z,24.53
2018-03-19T16:44:30.249Z,24.83
2018-03-19T16:46:58.497Z,26.13
2018-03-19T16:49:25.964Z,25.63
2018-03-19T16:51:54.285Z,28.37
2018-03-19T16:54:21.705Z,29.90
2018-03-19T16:56:49.917Z,27.20
2018-03-19T16:59:17.399Z,28.67
2018-03-19T17:01:44.856Z,27.97
2018-03-19T17:04:12.343Z,27.40
2018-03-19T17:06:39.815Z,28.50
2018-03-19T17:09:08.068Z,25.70
2018-03-19T17:11:35.544Z,27.60
2018-03-19T17:14:03.801Z,27.47
2018-03-19T17:16:31.252Z,26.17
2018-03-19T17:18:58.737Z,25.00
2018-03-19T17:21:26.962Z,26.77
2018-03-19T17:23:54.441Z,25.97
2018-03-19T17:26:21.924Z,27.33
2018-03-19T17:28:50.167Z,25.17
2018-03-19T17:31:17.667Z,26.03
2018-03-19T17:33:45.917Z,26.07
2018-03-19T17:36:13.427Z,27.07
2018-03-19T17:38:40.892Z,26.60
2018-03-19T17:41:08.359Z,26.20
2018-03-19T17:43:35.815Z,25.87
2018-03-19T17:46:03.288Z,28.30
2018-03-19T17:48:30.750Z,30.17
2018-03-19T17:50:58.224Z,29.20
2018-03-19T17:53:25.681Z,27.27
2018-03-19T17:55:53.163Z,28.97
2018-03-19T17:58:21.380Z,27.13
2018-03-19T18:00:48.856Z,28.23
2018-03-19T18:03:16.376Z,27.67
2018-03-19T18:05:43.845Z,29.90
2018-03-19T18:08:11.299Z,28.50
2018-03-19T18:10:38.771Z,24.87
2018-03-19T18:13:06.664Z,24.93
2018-03-19T18:15:34.137Z,25.00
2018-03-19T18:18:02.402Z,27.20
2018-03-19T18:20:29.849Z,29.73
2018-03-19T18:22:57.309Z,27.93
2018-03-19T18:25:24.792Z,25.10
2018-03-19T18:27:52.257Z,23.43
2018-03-19T18:30:20.497Z,21.83
2018-03-19T18:32:47.966Z,22.67
2018-03-19T18:35:15.424Z,22.27
2018-03-19T18:37:42.892Z,22.00
2018-03-19T18:40:11.149Z,23.20
2018-03-19T18:42:38.616Z,21.50
2018-03-19T18:45:06.082Z,19.97
2018-03-19T18:47:33.549Z,21.83
2018-03-19T18:50:01.832Z,22.33
2018-03-19T18:52:29.267Z,22.50
2018-03-19T18:54:56.741Z,22.37
2018-03-19T18:57:24.989Z,21.53
2018-03-19T18:59:52.461Z,20.90
2018-03-19T19:02:19.929Z,22.87
2018-03-19T19:04:48.162Z,23.17
2018-03-19T19:07:15.634Z,22.90
2018-03-19T19:09:43.105Z,21.40
2018-03-19T19:12:10.591Z,24.07
2018-03-19T19:14:38.052Z,22.07
2018-03-19T19:17:05.540Z,22.70
2018-03-19T19:19:33.049Z,21.17
2018-03-19T19:22:01.286Z,22.53
2018-03-19T19:24:28.745Z,21.83
2018-03-19T19:26:56.212Z,20.83
2018-03-19T19:29:23.684Z,23.50
2018-03-19T19:31:51.144Z,21.63
2018-03-19T19:34:18.609Z,22.27
2018-03-19T19:36:46.837Z,20.63
2018-03-19T19:39:14.308Z,21.30
2018-03-19T19:41:41.777Z,23.90
2018-03-19T19:44:09.252Z,21.50
2018-03-19T19:46:36.735Z,22.23
2018-03-19T19:49:04.217Z,22.83
2018-03-19T19:51:31.673Z,21.10
2018-03-19T19:53:59.146Z,23.27
2018-03-19T19:56:26.616Z,22.70
2018-03-19T19:58:54.085Z,20.90
2018-03-19T20:01:21.548Z,20.27
2018-03-19T20:03:49.032Z,21.47
2018-03-19T20:06:17.284Z,24.40
2018-03-19T20:08:44.787Z,23.67
2018-03-19T20:11:12.248Z,22.90
2018-03-19T20:13:39.730Z,22.40
2018-03-19T20:16:07.188Z,24.10
2018-03-19T20:18:34.659Z,22.97
2018-03-19T20:21:02.883Z,21.60
2018-03-19T20:23:30.351Z,20.97
2018-03-19T20:25:57.809Z,20.27
2018-03-19T20:28:25.280Z,22.63
2018-03-19T20:30:52.747Z,22.20
2018-03-19T20:33:20.235Z,22.87
2018-03-19T20:35:47.696Z,22.40
2018-03-19T20:38:15.162Z,24.07
2018-03-19T20:40:42.644Z,21.93
2018-03-19T20:43:10.115Z,21.73
2018-03-19T20:45:37.592Z,22.90
2018-03-19T20:48:05.045Z,21.37
2018-03-19T20:50:32.524Z,23.60
2018-03-19T20:52:59.988Z,22.33
2018-03-19T20:55:27.464Z,23.60
2018-03-19T20:57:55.697Z,23.57
2018-03-19T21:00:23.177Z,23.60
2018-03-19T21:02:50.633Z,25.43
2018-03-19T21:05:18.105Z,25.63
2018-03-19T21:07:45.571Z,24.80
2018-03-19T21:10:13.813Z,23.90
2018-03-19T21:12:41.271Z,24.43
2018-03-19T21:15:08.749Z,24.60
2018-03-19T21:17:36.252Z,24.13
2018-03-19T21:20:03.728Z,23.40
2018-03-19T21:22:31.211Z,25.30
2018-03-19T21:24:58.685Z,23.17
2018-03-19T21:27:26.913Z,23.63
2018-03-19T21:29:54.465Z,24.00
2018-03-19T21:32:21.918Z,21.83
2018-03-19T21:34:49.390Z,23.33
2018-03-19T21:37:16.860Z,23.87
2018-03-19T21:39:44.336Z,24.43
2018-03-19T21:42:11.799Z,24.10
2018-03-19T21:44:39.267Z,25.30
2018-03-19T21:47:06.725Z,24.50
2018-03-19T21:49:34.186Z,23.50
2018-03-19T21:52:02.440Z,26.40
2018-03-19T21:54:29.904Z,26.50
2018-03-19T21:56:57.371Z,24.13
2018-03-19T21:59:24.839Z,25.80
2018-03-19T22:01:52.308Z,24.77
2018-03-19T22:04:20.541Z,25.47
2018-03-19T22:06:48.020Z,23.10
2018-03-19T22:09:15.475Z,23.43
2018-03-19T22:11:42.950Z,25.27
2018-03-19T22:14:11.175Z,26.03
2018-03-19T22:16:38.639Z,25.97
2018-03-19T22:19:06.108Z,24.53
2018-03-19T22:21:33.584Z,25.83
2018-03-19T22:24:01.041Z,26.67
2018-03-19T22:26:28.512Z,25.47
2018-03-19T22:28:56.741Z,26.00
2018-03-19T22:31:24.209Z,23.80
2018-03-19T22:33:51.679Z,25.10
2018-03-19T22:36:19.151Z,26.10
2018-03-19T22:38:47.397Z,25.43
2018-03-19T22:41:14.863Z,27.07
2018-03-19T22:43:42.328Z,24.77
2018-03-19T22:46:09.799Z,25.73
2018-03-19T22:48:37.257Z,27.13
2018-03-19T22:51:04.722Z,27.20
2018-03-19T22:53:32.943Z,27.77
2018-03-19T22:56:00.418Z,26.97
2018-03-19T22:58:27.883Z,27.07
2018-03-19T23:00:55.352Z,25.10
2018-03-19T23:03:22.816Z,27.97
2018-03-19T23:05:50.287Z,27.43
2018-03-19T23:08:18.524Z,27.23
2018-03-19T23:10:45.986Z,25.87
2018-03-19T23:13:13.447Z,26.50
2018-03-19T23:15:40.916Z,25.90
2018-03-19T23:18:08.375Z,25.70
2018-03-19T23:20:35.843Z,27.07
2018-03-19T23:23:04.109Z,26.67
2018-03-19T23:25:31.588Z,28.00
2018-03-19T23:27:59.828Z,26.90
2018-03-19T23:30:27.296Z,25.20
2018-03-19T23:32:54.766Z,26.37
2018-03-19T23:35:22.995Z,26.70
2018-03-19T23:37:50.481Z,28.37
2018-03-19T23:40:18.343Z,27.63
2018-03-19T23:42:45.814Z,28.13
2018-03-19T23:45:13.269Z,28.97
2018-03-19T23:47:40.761Z,28.00
2018-03-19T23:50:08.225Z,29.93
2018-03-19T23:52:35.703Z,28.87
2018-03-19T23:55:03.157Z,28.43
2018-03-19T23:57:30.627Z,27.70
2018-03-19T23:59:58.091Z,29.10
